METAR Data
IDs: Format: Raw Decoded Include TAF

Data at: 2048 UTC 01 Dec 2021

KONA 012035Z AUTO 25003KT 10SM CLR 10/06 A2969 RMK AO2